createdAt,value
2022-08-19T00:01:06.827Z,5.30
2022-08-19T00:03:08.576Z,4.60
2022-08-19T00:05:11.644Z,4.90
2022-08-19T00:07:13.405Z,3.60
2022-08-19T00:09:17.858Z,4.40
2022-08-19T00:11:25.331Z,4.80
2022-08-19T00:13:29.697Z,5.40
2022-08-19T00:15:34.118Z,4.80
2022-08-19T00:17:35.790Z,5.70
2022-08-19T00:19:43.650Z,4.30
2022-08-19T00:21:45.398Z,4.50
2022-08-19T00:23:47.105Z,4.20
2022-08-19T00:25:48.953Z,5.10
2022-08-19T00:27:52.666Z,3.90
2022-08-19T00:29:54.356Z,2.70
2022-08-19T00:31:57.602Z,2.70
2022-08-19T00:33:59.470Z,4.90
2022-08-19T00:38:07.454Z,5.00
2022-08-19T00:40:09.569Z,4.40
2022-08-19T00:42:15.811Z,2.80
2022-08-19T00:44:21.226Z,3.70
2022-08-19T00:46:29.836Z,3.30
2022-08-19T00:48:33.193Z,3.50
2022-08-19T00:50:35.045Z,3.80
2022-08-19T00:52:42.236Z,6.90
2022-08-19T00:54:44.764Z,7.30
2022-08-19T00:56:47.358Z,4.30
2022-08-19T00:58:49.148Z,3.60
2022-08-19T01:00:50.891Z,1.60
2022-08-19T01:02:53.607Z,2.90
2022-08-19T01:04:56.045Z,5.70
2022-08-19T01:06:58.488Z,4.50
2022-08-19T01:09:00.898Z,2.20
2022-08-19T01:11:03.830Z,4.50
2022-08-19T01:13:05.971Z,3.50
2022-08-19T01:15:11.036Z,4.50
2022-08-19T01:17:13.717Z,3.20
2022-08-19T01:19:29.314Z,3.10
2022-08-19T01:21:49.669Z,2.60
2022-08-19T01:23:51.801Z,4.20
2022-08-19T01:25:55.385Z,2.20
2022-08-19T01:27:59.080Z,2.80
2022-08-19T01:30:10.288Z,3.70
2022-08-19T01:32:32.401Z,4.30
2022-08-19T01:34:38.979Z,6.60
2022-08-19T01:36:48.234Z,3.00
2022-08-19T01:38:50.467Z,2.40
2022-08-19T01:40:52.950Z,3.80
2022-08-19T01:42:54.988Z,2.70
2022-08-19T01:44:57.147Z,2.90
2022-08-19T01:49:05.431Z,3.30
2022-08-19T01:51:08.712Z,1.80
2022-08-19T01:53:12.106Z,2.90
2022-08-19T01:55:16.484Z,5.10
2022-08-19T01:57:18.192Z,3.50
2022-08-19T01:59:21.820Z,2.30
2022-08-19T02:01:23.806Z,2.40
2022-08-19T02:03:29.962Z,1.60
2022-08-19T02:05:31.834Z,2.60
2022-08-19T02:07:33.943Z,1.60
2022-08-19T02:09:36.507Z,1.10
2022-08-19T02:11:39.106Z,1.80
2022-08-19T02:13:40.788Z,3.50
2022-08-19T02:15:42.731Z,2.60
2022-08-19T02:17:44.442Z,2.00
2022-08-19T02:19:46.134Z,2.70
2022-08-19T02:21:47.826Z,1.70
2022-08-19T02:23:50.833Z,1.30
2022-08-19T02:25:53.062Z,2.20
2022-08-19T02:27:55.037Z,8.40
2022-08-19T02:32:00.645Z,3.30
2022-08-19T02:34:03.564Z,2.60
2022-08-19T02:36:06.791Z,2.00
2022-08-19T02:38:26.583Z,1.80
2022-08-19T02:40:29.870Z,1.30
2022-08-19T02:42:32.416Z,1.60
2022-08-19T02:44:34.171Z,4.50
2022-08-19T02:46:36.782Z,4.40
2022-08-19T02:48:38.486Z,1.80
2022-08-19T02:50:41.044Z,1.90
2022-08-19T02:52:55.568Z,1.60
2022-08-19T02:57:02.931Z,3.40
2022-08-19T02:59:12.117Z,1.60
2022-08-19T03:01:24.406Z,1.50
2022-08-19T03:03:26.166Z,1.50
2022-08-19T03:05:56.198Z,3.60
2022-08-19T03:07:50.672Z,1.00
2022-08-19T03:09:52.363Z,2.00
2022-08-19T03:11:54.048Z,1.30
2022-08-19T03:13:57.087Z,1.20
2022-08-19T03:15:58.798Z,1.90
2022-08-19T03:18:02.538Z,1.80
2022-08-19T03:20:08.919Z,2.30
2022-08-19T03:22:10.759Z,0.70
2022-08-19T03:24:13.274Z,1.40
2022-08-19T03:26:18.134Z,2.60
2022-08-19T03:28:20.395Z,1.40
2022-08-19T03:30:23.238Z,1.40
2022-08-19T03:32:32.802Z,1.60
2022-08-19T03:34:37.452Z,3.30
2022-08-19T03:36:39.232Z,2.10
2022-08-19T03:38:49.802Z,1.50
2022-08-19T03:40:59.425Z,1.70
2022-08-19T03:43:01.865Z,3.30
2022-08-19T03:45:04.236Z,1.40
2022-08-19T03:47:06.415Z,1.20
2022-08-19T03:49:11.181Z,2.10
2022-08-19T03:51:18.864Z,3.20
2022-08-19T04:00:49.742Z,1.80
2022-08-19T04:02:58.794Z,2.50
2022-08-19T04:05:02.701Z,1.00
2022-08-19T04:07:04.475Z,1.10
2022-08-19T04:09:09.664Z,2.50
2022-08-19T04:11:14.432Z,1.10
2022-08-19T04:13:18.399Z,2.00
2022-08-19T04:15:20.584Z,0.30
2022-08-19T04:17:23.505Z,1.30
2022-08-19T04:19:25.633Z,1.20
2022-08-19T04:21:28.091Z,0.30
2022-08-19T04:23:29.858Z,5.30
2022-08-19T04:25:37.595Z,0.40
2022-08-19T04:27:39.307Z,1.50
2022-08-19T04:29:41.367Z,2.50
2022-08-19T04:31:44.938Z,0.80
2022-08-19T04:33:46.623Z,1.20
2022-08-19T04:35:49.951Z,1.10
2022-08-19T04:37:51.639Z,0.50
2022-08-19T04:40:12.318Z,1.20
2022-08-19T04:42:34.479Z,2.00
2022-08-19T04:44:39.903Z,3.60
2022-08-19T04:46:51.386Z,1.90
2022-08-19T04:48:54.479Z,2.10
2022-08-19T04:51:00.533Z,1.30
2022-08-19T04:53:02.331Z,1.00
2022-08-19T04:55:07.572Z,0.80
2022-08-19T04:57:11.795Z,1.30
2022-08-19T04:59:13.853Z,1.70
2022-08-19T05:03:21.460Z,0.30
2022-08-19T05:05:26.232Z,1.70
2022-08-19T05:07:28.430Z,1.40
2022-08-19T05:09:42.124Z,1.20
2022-08-19T05:11:53.843Z,0.90
2022-08-19T05:13:55.968Z,4.40
2022-08-19T05:15:58.794Z,2.00
2022-08-19T05:18:19.667Z,1.30
2022-08-19T05:20:41.515Z,2.40
2022-08-19T05:26:03.847Z,1.10
2022-08-19T05:28:07.891Z,0.80
2022-08-19T05:30:10.865Z,0.70
2022-08-19T05:32:12.592Z,0.90
2022-08-19T05:34:18.567Z,1.70
2022-08-19T05:36:24.455Z,1.40
2022-08-19T05:38:28.446Z,1.80
2022-08-19T05:40:30.324Z,1.30
2022-08-19T05:42:32.315Z,0.90
2022-08-19T05:46:40.174Z,1.10
2022-08-19T05:48:41.844Z,2.80
2022-08-19T05:50:43.561Z,3.00
2022-08-19T05:52:50.667Z,2.70
2022-08-19T05:54:55.582Z,2.40
2022-08-19T05:56:57.625Z,2.20
2022-08-19T05:58:59.954Z,3.50
2022-08-19T06:01:05.560Z,3.60
2022-08-19T06:03:12.406Z,2.50
2022-08-19T06:05:15.108Z,4.00
2022-08-19T06:07:17.935Z,3.50
2022-08-19T06:09:23.229Z,4.10
2022-08-19T06:11:34.022Z,4.40
2022-08-19T06:13:35.665Z,5.80
2022-08-19T06:15:38.605Z,4.60
2022-08-19T06:17:40.572Z,5.80
2022-08-19T06:21:48.992Z,7.30
2022-08-19T06:23:52.587Z,6.00
2022-08-19T06:25:54.297Z,3.10
2022-08-19T06:28:14.573Z,8.60
2022-08-19T06:30:17.270Z,6.70
2022-08-19T06:32:20.226Z,6.10
2022-08-19T06:34:22.374Z,5.90
2022-08-19T06:36:37.258Z,6.20
2022-08-19T06:38:38.958Z,6.90
2022-08-19T06:40:40.773Z,8.20
2022-08-19T06:42:47.600Z,9.10
2022-08-19T06:44:56.454Z,8.70
2022-08-19T06:46:58.843Z,6.40
2022-08-19T06:50:54.914Z,5.90
2022-08-19T06:52:56.708Z,4.10
2022-08-19T06:57:04.938Z,9.40
2022-08-19T06:59:15.978Z,11.50
2022-08-19T07:01:17.737Z,7.90
2022-08-19T07:03:19.405Z,9.20
2022-08-19T07:05:24.446Z,8.60
2022-08-19T07:07:26.431Z,8.30
2022-08-19T07:11:33.612Z,8.40
2022-08-19T07:13:37.946Z,4.90
2022-08-19T07:15:39.763Z,9.90
2022-08-19T07:19:44.158Z,9.00
2022-08-19T07:21:50.517Z,6.00
2022-08-19T07:23:52.852Z,8.20
2022-08-19T07:25:54.567Z,9.20
2022-08-19T07:27:56.700Z,9.60
2022-08-19T07:29:59.770Z,6.40
2022-08-19T07:32:02.624Z,7.50
2022-08-19T07:34:09.039Z,11.10
2022-08-19T07:36:14.787Z,10.10
2022-08-19T07:38:17.362Z,11.10
2022-08-19T07:40:19.221Z,9.60
2022-08-19T07:42:22.202Z,7.90
2022-08-19T07:44:24.674Z,9.20
2022-08-19T07:46:27.889Z,8.60
2022-08-19T07:48:29.827Z,5.70
2022-08-19T07:52:33.339Z,6.70
2022-08-19T08:00:55.136Z,7.50
2022-08-19T08:02:57.188Z,9.00
2022-08-19T08:05:17.512Z,5.10
2022-08-19T08:07:37.532Z,11.00
2022-08-19T08:09:41.063Z,8.50
2022-08-19T08:11:53.476Z,6.30
2022-08-19T08:14:01.210Z,11.00
2022-08-19T08:16:06.922Z,11.30
2022-08-19T08:18:12.707Z,9.30
2022-08-19T08:20:16.510Z,10.90
2022-08-19T08:24:41.432Z,7.60
2022-08-19T08:26:46.738Z,7.80
2022-08-19T08:28:54.341Z,10.70
2022-08-19T08:30:56.758Z,12.20
2022-08-19T08:32:59.544Z,6.60
2022-08-19T08:35:01.575Z,7.70
2022-08-19T08:37:04.555Z,9.00
2022-08-19T08:39:06.502Z,10.80
2022-08-19T08:43:37.919Z,6.90
2022-08-19T08:45:53.405Z,5.40
2022-08-19T08:47:58.630Z,11.70
2022-08-19T08:50:04.717Z,9.70
2022-08-19T08:52:09.520Z,6.00
2022-08-19T08:54:14.853Z,8.40
2022-08-19T08:56:18.909Z,7.10
2022-08-19T08:58:28.420Z,6.10
2022-08-19T09:00:42.336Z,6.80
2022-08-19T09:02:50.859Z,9.10
2022-08-19T09:04:57.184Z,7.70
2022-08-19T09:07:18.130Z,12.00
2022-08-19T09:09:44.636Z,7.00
2022-08-19T09:12:16.259Z,6.00
2022-08-19T09:14:47.360Z,6.90
2022-08-19T09:16:55.265Z,6.20
2022-08-19T09:19:53.248Z,10.10
2022-08-19T09:22:34.790Z,8.40
2022-08-19T09:24:41.431Z,8.50
2022-08-19T09:26:52.780Z,8.10
2022-08-19T09:28:56.593Z,8.90
2022-08-19T09:30:59.995Z,8.10
2022-08-19T09:33:19.834Z,7.40
2022-08-19T09:35:28.427Z,6.90
2022-08-19T09:37:34.742Z,10.30
2022-08-19T09:39:42.442Z,6.80
2022-08-19T09:41:47.286Z,5.60
2022-08-19T09:43:56.493Z,10.10
2022-08-19T09:45:58.464Z,8.20
2022-08-19T09:48:00.192Z,8.80
2022-08-19T09:50:04.658Z,10.80
2022-08-19T09:52:09.019Z,11.80
2022-08-19T09:54:15.687Z,11.20
2022-08-19T09:56:25.711Z,7.90
2022-08-19T09:58:28.835Z,10.00
2022-08-19T10:00:32.041Z,7.50
2022-08-19T10:02:34.258Z,8.30
2022-08-19T10:04:54.427Z,7.40
2022-08-19T10:06:57.532Z,8.30
2022-08-19T10:08:59.596Z,9.70
2022-08-19T10:11:28.114Z,9.70
2022-08-19T10:13:27.130Z,6.40
2022-08-19T10:15:29.537Z,8.90
2022-08-19T10:17:31.708Z,4.60
2022-08-19T10:19:37.129Z,5.30
2022-08-19T10:21:40.482Z,7.00
2022-08-19T10:23:46.191Z,6.00
2022-08-19T10:25:48.766Z,7.40
2022-08-19T10:27:51.193Z,8.60
2022-08-19T10:29:53.548Z,7.60
2022-08-19T10:32:02.516Z,10.80
2022-08-19T10:34:04.902Z,6.70
2022-08-19T10:36:10.917Z,8.00
2022-08-19T10:38:12.672Z,6.00
2022-08-19T10:42:17.759Z,6.60
2022-08-19T10:44:20.601Z,6.80
2022-08-19T10:46:24.461Z,5.50
2022-08-19T10:48:27.137Z,5.60
2022-08-19T10:50:47.479Z,5.20
2022-08-19T10:52:50.917Z,7.00
2022-08-19T10:55:11.148Z,5.60
2022-08-19T10:57:12.910Z,4.90
2022-08-19T10:59:16.410Z,8.40
2022-08-19T11:01:18.157Z,5.20
2022-08-19T11:03:20.028Z,5.00
2022-08-19T11:05:24.429Z,8.70
2022-08-19T11:07:27.415Z,8.50
2022-08-19T11:09:33.876Z,5.40
2022-08-19T11:11:41.850Z,5.30
2022-08-19T11:13:45.536Z,8.20
2022-08-19T11:16:47.812Z,8.80
2022-08-19T11:20:55.679Z,4.50
2022-08-19T11:22:57.419Z,7.40
2022-08-19T11:24:59.271Z,7.90
2022-08-19T11:27:06.969Z,11.90
2022-08-19T11:29:13.901Z,5.70
2022-08-19T11:31:19.015Z,6.90
2022-08-19T11:33:20.735Z,6.80
2022-08-19T11:35:24.477Z,9.60
2022-08-19T11:37:26.238Z,8.10
2022-08-19T11:39:30.197Z,7.00
2022-08-19T11:41:31.944Z,7.00
2022-08-19T11:43:37.450Z,5.80
2022-08-19T11:45:39.499Z,8.90
2022-08-19T11:47:43.527Z,11.10
2022-08-19T11:49:47.048Z,8.30
2022-08-19T11:51:51.177Z,7.00
2022-08-19T11:53:54.633Z,11.30
2022-08-19T11:55:56.880Z,6.00
2022-08-19T11:57:58.850Z,6.90
2022-08-19T12:00:00.606Z,9.30
2022-08-19T12:02:02.371Z,6.60
2022-08-19T12:04:06.178Z,7.90
2022-08-19T12:06:14.298Z,5.70
2022-08-19T12:08:19.051Z,6.50
2022-08-19T12:10:25.835Z,10.50
2022-08-19T12:12:29.032Z,9.60
2022-08-19T12:14:31.859Z,5.30
2022-08-19T12:16:33.872Z,5.70
2022-08-19T12:18:35.676Z,6.80
2022-08-19T12:20:39.450Z,9.90
2022-08-19T12:22:43.804Z,6.40
2022-08-19T12:24:45.462Z,6.80
2022-08-19T12:26:52.910Z,6.90
2022-08-19T12:28:56.115Z,4.60
2022-08-19T12:30:58.222Z,8.40
2022-08-19T12:33:00.125Z,6.90
2022-08-19T12:35:02.281Z,8.50
2022-08-19T12:37:06.107Z,5.50
2022-08-19T12:39:10.692Z,6.00
2022-08-19T12:41:18.489Z,7.20
2022-08-19T12:43:21.414Z,11.90
2022-08-19T12:45:23.732Z,5.00
2022-08-19T12:47:27.389Z,6.80
2022-08-19T12:49:52.370Z,7.30
2022-08-19T12:51:54.199Z,7.40
2022-08-19T12:53:55.911Z,6.20
2022-08-19T12:55:59.171Z,8.50
2022-08-19T12:58:02.497Z,7.60
2022-08-19T13:00:11.451Z,6.50
2022-08-19T13:02:13.146Z,3.60
2022-08-19T13:04:14.971Z,2.50
2022-08-19T13:06:19.508Z,5.30
2022-08-19T13:08:22.159Z,4.80
2022-08-19T13:10:35.863Z,4.50
2022-08-19T13:12:37.577Z,4.80
2022-08-19T13:14:41.271Z,6.60
2022-08-19T13:16:44.842Z,4.70
2022-08-19T13:18:48.413Z,5.60
2022-08-19T13:20:52.731Z,4.80
2022-08-19T13:22:55.350Z,5.90
2022-08-19T13:24:57.173Z,4.90
2022-08-19T13:27:02.070Z,4.90
2022-08-19T13:29:22.032Z,7.80
2022-08-19T13:31:43.532Z,9.90
2022-08-19T13:33:46.295Z,5.50
2022-08-19T13:35:52.819Z,6.70
2022-08-19T13:37:54.590Z,7.30
2022-08-19T13:39:56.485Z,6.40
2022-08-19T13:41:59.282Z,4.70
2022-08-19T13:44:01.091Z,7.40
2022-08-19T13:46:10.629Z,6.20
2022-08-19T13:48:12.328Z,6.40
2022-08-19T13:50:16.717Z,6.70
2022-08-19T13:52:18.459Z,5.60
2022-08-19T13:54:20.144Z,6.50
2022-08-19T13:56:26.002Z,6.30
2022-08-19T13:58:28.064Z,8.80
2022-08-19T14:00:33.119Z,6.10
2022-08-19T14:02:34.930Z,7.70
2022-08-19T14:04:38.450Z,8.50
2022-08-19T14:06:40.102Z,9.60
2022-08-19T14:08:46.017Z,5.00
2022-08-19T14:10:49.412Z,7.40
2022-08-19T14:12:56.400Z,12.30
2022-08-19T14:14:58.122Z,9.00
2022-08-19T14:17:01.321Z,7.70
2022-08-19T14:19:05.973Z,8.70
2022-08-19T14:21:08.211Z,7.70
2022-08-19T14:23:10.101Z,6.60
2022-08-19T14:25:19.416Z,4.00
2022-08-19T14:27:21.067Z,8.80
2022-08-19T14:29:22.893Z,6.30
2022-08-19T14:31:29.001Z,6.40
2022-08-19T14:33:33.585Z,11.60
2022-08-19T14:35:35.697Z,6.50
2022-08-19T14:37:45.402Z,7.80
2022-08-19T14:39:47.816Z,12.40
2022-08-19T14:41:49.802Z,8.60
2022-08-19T14:43:53.151Z,6.60
2022-08-19T14:45:54.952Z,5.50
2022-08-19T14:47:56.841Z,9.40
2022-08-19T14:49:58.543Z,5.90
2022-08-19T14:52:00.273Z,7.20
2022-08-19T14:54:02.113Z,8.60
2022-08-19T14:56:09.830Z,7.20
2022-08-19T14:58:29.823Z,9.10
2022-08-19T15:00:32.052Z,9.90
2022-08-19T15:02:35.510Z,10.80
2022-08-19T15:04:37.581Z,9.90
2022-08-19T15:06:39.635Z,12.00
2022-08-19T15:08:44.080Z,8.50
2022-08-19T15:10:48.687Z,10.50
2022-08-19T15:12:51.853Z,8.10
2022-08-19T15:14:56.754Z,8.10
2022-08-19T15:16:59.255Z,8.70
2022-08-19T15:19:01.232Z,11.60
2022-08-19T15:21:04.136Z,7.70
2022-08-19T15:23:06.669Z,7.40
2022-08-19T15:25:11.577Z,8.30
2022-08-19T15:27:14.452Z,6.80
2022-08-19T15:29:16.848Z,7.10
2022-08-19T15:31:25.565Z,9.00
2022-08-19T15:33:33.261Z,9.30
2022-08-19T15:35:35.012Z,9.70
2022-08-19T15:37:37.119Z,15.50
2022-08-19T15:39:39.507Z,9.40
2022-08-19T15:41:43.231Z,7.20
2022-08-19T15:43:48.235Z,14.20
2022-08-19T15:45:49.987Z,9.20
2022-08-19T15:47:51.728Z,8.00
2022-08-19T15:49:55.753Z,10.20
2022-08-19T15:52:01.651Z,13.80
2022-08-19T15:54:08.680Z,12.40
2022-08-19T15:56:11.417Z,7.30
2022-08-19T15:58:33.448Z,9.10
2022-08-19T16:00:53.779Z,9.30
2022-08-19T16:03:13.914Z,12.40
2022-08-19T16:05:40.400Z,12.80
2022-08-19T16:07:42.335Z,9.10
2022-08-19T16:09:44.018Z,10.80
2022-08-19T16:11:56.523Z,10.60
2022-08-19T16:13:59.652Z,13.70
2022-08-19T16:16:01.442Z,11.80
2022-08-19T16:18:04.256Z,12.10
2022-08-19T16:20:09.116Z,11.80
2022-08-19T16:22:10.938Z,8.90
2022-08-19T16:24:15.027Z,14.40
2022-08-19T16:26:19.543Z,10.80
2022-08-19T16:28:22.917Z,9.50
2022-08-19T16:30:24.859Z,12.20
2022-08-19T16:32:26.902Z,9.90
2022-08-19T16:34:28.558Z,11.70
2022-08-19T16:36:31.276Z,9.90
2022-08-19T16:38:34.192Z,8.80
2022-08-19T16:40:36.054Z,7.60
2022-08-19T16:42:37.760Z,8.20
2022-08-19T16:44:45.194Z,6.10
2022-08-19T16:46:58.385Z,7.90
2022-08-19T16:49:00.823Z,9.40
2022-08-19T16:51:09.369Z,7.10
2022-08-19T16:53:11.011Z,8.00
2022-08-19T16:55:12.740Z,10.40
2022-08-19T16:57:14.807Z,7.40
2022-08-19T16:59:16.962Z,9.30
2022-08-19T17:01:18.960Z,9.80
2022-08-19T17:03:27.881Z,10.60
2022-08-19T17:05:48.168Z,8.60
2022-08-19T17:07:49.820Z,7.80
2022-08-19T17:09:52.446Z,8.60
2022-08-19T17:11:54.117Z,10.20
2022-08-19T17:13:59.024Z,8.50
2022-08-19T17:16:00.808Z,6.40
2022-08-19T17:18:04.344Z,9.80
2022-08-19T17:20:07.587Z,6.90
2022-08-19T17:22:11.502Z,7.30
2022-08-19T17:24:13.272Z,8.30
2022-08-19T17:26:18.380Z,9.10
2022-08-19T17:28:27.414Z,7.90
2022-08-19T17:30:29.095Z,5.50
2022-08-19T17:32:34.995Z,9.80
2022-08-19T17:34:37.116Z,8.10
2022-08-19T17:36:38.801Z,9.80
2022-08-19T17:38:40.490Z,9.80
2022-08-19T17:40:44.346Z,10.20
2022-08-19T17:42:46.203Z,8.00
2022-08-19T17:44:50.908Z,7.50
2022-08-19T17:46:53.638Z,6.20
2022-08-19T17:48:57.337Z,7.40
2022-08-19T17:51:00.450Z,6.70
2022-08-19T17:53:03.022Z,8.60
2022-08-19T17:55:06.903Z,7.20
2022-08-19T17:57:09.618Z,4.80
2022-08-19T17:59:14.073Z,7.60
2022-08-19T18:01:16.209Z,4.90
2022-08-19T18:03:21.690Z,9.10
2022-08-19T18:07:32.387Z,3.70
2022-08-19T18:09:41.650Z,4.50
2022-08-19T18:11:44.878Z,7.20
2022-08-19T18:13:54.506Z,4.30
2022-08-19T18:17:59.642Z,6.00
2022-08-19T18:22:03.585Z,5.10
2022-08-19T18:24:05.986Z,4.10
2022-08-19T18:26:08.136Z,5.80
2022-08-19T18:28:09.878Z,3.70
2022-08-19T18:34:15.543Z,4.80
2022-08-19T18:36:27.896Z,6.20
2022-08-19T18:39:07.924Z,6.60
2022-08-19T18:41:28.556Z,7.70
2022-08-19T18:43:48.639Z,5.50
2022-08-19T18:46:09.915Z,9.10
2022-08-19T18:48:30.361Z,4.50
2022-08-19T18:50:32.675Z,4.30
2022-08-19T18:52:35.385Z,10.70
2022-08-19T18:54:37.224Z,5.70
2022-08-19T18:56:43.646Z,6.40
2022-08-19T18:58:46.246Z,5.00
2022-08-19T19:00:48.255Z,7.50
2022-08-19T19:02:50.153Z,3.80
2022-08-19T19:06:53.692Z,7.70
2022-08-19T19:10:57.111Z,4.10
2022-08-19T19:13:00.109Z,5.10
2022-08-19T19:15:03.836Z,4.70
2022-08-19T19:17:08.397Z,6.90
2022-08-19T19:19:14.993Z,4.40
2022-08-19T19:21:23.562Z,6.30
2022-08-19T19:23:25.434Z,7.70
2022-08-19T19:25:27.600Z,3.80
2022-08-19T19:27:50.144Z,4.50
2022-08-19T19:29:52.748Z,4.50
2022-08-19T19:31:58.459Z,7.40
2022-08-19T19:34:00.522Z,3.20
2022-08-19T19:36:02.352Z,6.00
2022-08-19T19:38:04.071Z,4.50
2022-08-19T19:40:06.500Z,6.00
2022-08-19T19:42:12.507Z,2.80
2022-08-19T19:44:30.923Z,7.60
2022-08-19T19:46:34.391Z,7.80
2022-08-19T19:48:36.094Z,7.40
2022-08-19T19:50:39.035Z,3.70
2022-08-19T19:52:41.476Z,5.50
2022-08-19T19:54:47.854Z,3.30
2022-08-19T19:56:50.523Z,2.70
2022-08-19T19:58:53.572Z,4.20
2022-08-19T20:00:58.100Z,5.60
2022-08-19T20:03:00.011Z,3.90
2022-08-19T20:05:01.663Z,3.50
2022-08-19T20:07:03.358Z,4.50
2022-08-19T20:09:10.333Z,3.40
2022-08-19T20:11:12.026Z,7.20
2022-08-19T20:13:15.667Z,4.70
2022-08-19T20:16:18.999Z,7.30
2022-08-19T20:18:26.488Z,3.30
2022-08-19T20:20:28.471Z,4.70
2022-08-19T20:24:36.342Z,6.00
2022-08-19T20:26:38.109Z,8.60
2022-08-19T20:28:43.433Z,5.50
2022-08-19T20:30:51.266Z,5.40
2022-08-19T20:32:55.377Z,3.30
2022-08-19T20:34:58.989Z,5.30
2022-08-19T20:37:00.709Z,3.90
2022-08-19T20:39:04.721Z,3.60
2022-08-19T20:41:10.620Z,4.40
2022-08-19T20:43:13.830Z,3.10
2022-08-19T20:45:31.958Z,8.30
2022-08-19T20:47:36.185Z,3.90
2022-08-19T20:49:37.840Z,7.00
2022-08-19T20:51:39.545Z,6.10
2022-08-19T20:53:41.985Z,4.40
2022-08-19T20:55:45.540Z,8.20
2022-08-19T20:57:47.574Z,5.00
2022-08-19T21:01:53.918Z,5.90
2022-08-19T21:03:55.581Z,8.10
2022-08-19T21:05:57.992Z,8.20
2022-08-19T21:07:59.649Z,7.90
2022-08-19T21:10:01.449Z,7.40
2022-08-19T21:12:06.117Z,3.70
2022-08-19T21:14:08.077Z,8.90
2022-08-19T21:16:09.847Z,7.70
2022-08-19T21:18:13.208Z,6.00
2022-08-19T21:20:15.311Z,12.20
2022-08-19T21:22:17.035Z,9.20
2022-08-19T21:24:18.727Z,6.00
2022-08-19T21:26:23.054Z,7.00
2022-08-19T21:28:35.160Z,6.10
2022-08-19T21:30:38.939Z,4.70
2022-08-19T21:32:41.431Z,7.50
2022-08-19T21:34:46.468Z,8.10
2022-08-19T21:36:48.335Z,11.80
2022-08-19T21:38:50.005Z,8.60
2022-08-19T21:40:51.758Z,8.90
2022-08-19T21:42:53.496Z,15.30
2022-08-19T21:44:55.147Z,8.10
2022-08-19T21:46:56.943Z,5.40
2022-08-19T21:48:58.737Z,9.70
2022-08-19T21:51:00.424Z,4.70
2022-08-19T21:53:04.656Z,8.70
2022-08-19T21:55:08.007Z,4.60
2022-08-19T21:57:10.374Z,6.90
2022-08-19T21:59:12.657Z,8.20
2022-08-19T22:01:14.411Z,3.90
2022-08-19T22:03:22.135Z,3.60
2022-08-19T22:05:25.041Z,3.90
2022-08-19T22:07:26.737Z,4.20
2022-08-19T22:09:28.467Z,5.40
2022-08-19T22:11:30.323Z,4.70
2022-08-19T22:13:40.373Z,2.80
2022-08-19T22:15:42.517Z,8.20
2022-08-19T22:17:44.810Z,9.60
2022-08-19T22:19:46.807Z,4.30
2022-08-19T22:23:50.086Z,6.10
2022-08-19T22:25:51.843Z,3.10
2022-08-19T22:27:56.903Z,5.70
2022-08-19T22:30:04.727Z,6.70
2022-08-19T22:32:23.029Z,4.10
2022-08-19T22:34:28.881Z,5.10
2022-08-19T22:36:32.210Z,2.90
2022-08-19T22:38:38.339Z,4.40
2022-08-19T22:40:47.478Z,3.80
2022-08-19T22:42:49.277Z,5.80
2022-08-19T22:44:51.557Z,4.80
2022-08-19T22:46:53.347Z,5.20
2022-08-19T22:49:01.501Z,5.20
2022-08-19T22:51:41.701Z,8.10
2022-08-19T22:53:46.598Z,3.50
2022-08-19T22:55:48.492Z,4.70
2022-08-19T22:57:50.314Z,3.90
2022-08-19T22:59:53.361Z,6.50
2022-08-19T23:01:56.546Z,3.20
2022-08-19T23:03:59.718Z,2.70
2022-08-19T23:06:01.516Z,3.10
2022-08-19T23:08:03.673Z,5.00
2022-08-19T23:12:08.703Z,5.60
2022-08-19T23:18:16.799Z,3.00
2022-08-19T23:20:18.725Z,4.00
2022-08-19T23:25:47.519Z,4.90
2022-08-19T23:28:08.499Z,5.70
2022-08-19T23:30:26.596Z,3.00
2022-08-19T23:32:28.261Z,3.40
2022-08-19T23:34:30.258Z,3.90
2022-08-19T23:36:31.969Z,2.40
2022-08-19T23:42:11.652Z,6.30
2022-08-19T23:44:14.846Z,3.40
2022-08-19T23:46:28.108Z,2.80
2022-08-19T23:48:35.291Z,4.50
2022-08-19T23:50:38.758Z,2.70
2022-08-19T23:52:50.494Z,7.20
2022-08-19T23:54:52.163Z,4.10
2022-08-19T23:56:53.813Z,3.60
2022-08-19T23:58:55.603Z,4.90
